KEGI/EGI METAR and TAF weather

Enter ICAO airport designator
Station Type Date Time Source
KEGI METAR 2020/07/15 05:56 UTC NOAA

KEGI 150556Z AUTO 00000KT 10SM CLR 25/25 A3000 RMK AO2 SLP158 60000 T02500250 10280 20245 403390245 58006 $


Station Type Date Time Source
KEGI Decoded METAR 2020/07/15 05:56 UTC NOAA

Duke Field / Eglin Auxiliary, FL, United States (KEGI) 30-39N 086-31W
Jul 15, 2020 - 01:56 AM EDT / 2020.07.15 0556 UTC
Wind: Calm:0
Visibility: 10 mile(s):0
Sky conditions: clear
Temperature: 77.0 F (25.0 C)
Dew Point: 77.0 F (25.0 C)
Relative Humidity: 100%
Pressure (altimeter): 30 in. Hg (1015 hPa)
Pressure tendency: 0.02 inches (0.6 hPa) lower than three hours ago
ob: KEGI 150556Z AUTO 00000KT 10SM CLR 25/25 A3000 RMK AO2 SLP158 60000 T02500250 10280 20245 403390245 58006
cycle: 6

Station Type Date Time Source
KEGI TAF 2020/07/15 05:57 UTC NOAA

TAF
AMD KEGI 150500Z 1505/1607 26009KT 9999 FEW015 SCT030 BKN250 QNH2998INS
BECMG 1510/1511 25009KT 9999 SCT008 SCT250 QNH3000INS
BECMG 1515/1516 23012KT 9999 VCTS FEW020CB SCT050 SCT250 QNH3002INS
TEMPO 1518/1522 22015G25KT 4800 -TSRA SCT020CB BKN050
BECMG 1523/1524 20009KT 9999 NSW SCT018 SCT050 QNH3004INS WND 16006KT AFT 1606 TX32/1520Z TN25/1512Z LAST NO
AMDS AFT 1505 NEXT 1517

Example: see airport list